createdAt,value
2023-05-17T00:00:48.053Z,17.28
2023-05-17T00:03:18.233Z,16.53
2023-05-17T00:05:45.981Z,15.92
2023-05-17T00:08:12.473Z,15.64
2023-05-17T00:10:40.246Z,16.24
2023-05-17T00:13:06.623Z,16.76
2023-05-17T00:15:33.057Z,17.06
2023-05-17T00:17:59.473Z,17.29
2023-05-17T00:20:26.845Z,17.50
2023-05-17T00:22:54.307Z,17.74
2023-05-17T00:25:20.771Z,17.38
2023-05-17T00:27:47.231Z,16.60
2023-05-17T00:30:14.053Z,15.95
2023-05-17T00:32:41.234Z,15.45
2023-05-17T00:35:07.783Z,15.20
2023-05-17T00:37:34.248Z,15.86
2023-05-17T00:40:00.669Z,16.78
2023-05-17T00:42:27.125Z,17.44
2023-05-17T00:44:53.533Z,17.54
2023-05-17T00:47:22.501Z,16.86
2023-05-17T00:49:51.235Z,16.13
2023-05-17T00:52:17.833Z,15.58
2023-05-17T00:54:45.040Z,15.17
2023-05-17T00:57:15.252Z,15.06
2023-05-17T00:59:45.375Z,15.84
2023-05-17T01:02:12.101Z,16.63
2023-05-17T01:04:41.430Z,17.30
2023-05-17T01:07:09.136Z,17.66
2023-05-17T01:09:35.547Z,17.06
2023-05-17T01:13:00.617Z,16.31
2023-05-17T01:15:32.729Z,15.57
2023-05-17T01:17:59.286Z,15.18
2023-05-17T01:20:28.764Z,15.08
2023-05-17T01:23:10.564Z,15.95
2023-05-17T01:26:14.587Z,16.85
2023-05-17T01:28:43.940Z,17.51
2023-05-17T01:33:53.111Z,16.88
2023-05-17T01:36:19.835Z,16.13
2023-05-17T01:38:46.210Z,15.54
2023-05-17T01:41:12.591Z,15.11
2023-05-17T01:43:41.964Z,14.99
2023-05-17T01:46:15.999Z,15.82
2023-05-17T01:48:51.037Z,16.48
2023-05-17T01:51:19.820Z,16.85
2023-05-17T01:53:48.878Z,17.23
2023-05-17T01:56:20.559Z,17.45
2023-05-17T01:58:48.160Z,16.68
2023-05-17T02:01:16.767Z,15.87
2023-05-17T02:03:43.401Z,15.21
2023-05-17T02:06:11.089Z,14.84
2023-05-17T02:08:40.181Z,15.37
2023-05-17T02:11:06.668Z,16.14
2023-05-17T02:13:33.186Z,16.67
2023-05-17T02:16:03.685Z,16.46
2023-05-17T02:18:31.843Z,15.67
2023-05-17T02:20:58.754Z,14.94
2023-05-17T02:23:25.294Z,14.38
2023-05-17T02:25:52.649Z,14.36
2023-05-17T02:28:19.048Z,15.25
2023-05-17T02:30:45.533Z,16.06
2023-05-17T02:33:13.177Z,16.36
2023-05-17T02:35:40.104Z,15.72
2023-05-17T02:38:06.647Z,14.93
2023-05-17T02:40:33.166Z,14.29
2023-05-17T02:43:02.485Z,13.79
2023-05-17T02:45:30.044Z,13.64
2023-05-17T02:47:56.607Z,14.41
2023-05-17T02:50:23.200Z,15.03
2023-05-17T02:52:50.118Z,15.21
2023-05-17T02:55:16.894Z,14.65
2023-05-17T02:57:44.019Z,13.98
2023-05-17T03:00:11.255Z,13.46
2023-05-17T03:02:38.245Z,13.09
2023-05-17T03:05:05.581Z,13.62
2023-05-17T03:07:32.226Z,14.55
2023-05-17T03:09:58.999Z,15.17
2023-05-17T03:12:29.543Z,15.12
2023-05-17T03:14:56.515Z,14.42
2023-05-17T03:17:23.843Z,13.77
2023-05-17T03:19:50.582Z,13.28
2023-05-17T03:22:17.281Z,12.90
2023-05-17T03:24:43.686Z,12.74
2023-05-17T03:27:10.318Z,13.62
2023-05-17T03:29:38.041Z,14.61
2023-05-17T03:32:06.255Z,14.91
2023-05-17T03:34:32.692Z,14.32
2023-05-17T03:37:00.657Z,13.62
2023-05-17T03:39:27.345Z,13.09
2023-05-17T03:41:54.333Z,12.69
2023-05-17T03:44:21.804Z,12.55
2023-05-17T03:46:50.584Z,13.55
2023-05-17T03:49:17.912Z,14.70
2023-05-17T03:51:44.615Z,15.28
2023-05-17T03:54:11.026Z,14.74
2023-05-17T03:56:37.473Z,14.02
2023-05-17T03:59:03.993Z,13.48
2023-05-17T04:01:30.880Z,13.06
2023-05-17T04:03:57.633Z,12.75
2023-05-17T04:06:24.972Z,12.49
2023-05-17T04:08:54.383Z,12.28
2023-05-17T04:11:23.606Z,12.68
2023-05-17T04:13:50.934Z,13.71
2023-05-17T04:16:17.493Z,14.58
2023-05-17T04:18:45.363Z,14.52
2023-05-17T04:21:12.495Z,13.88
2023-05-17T04:23:38.994Z,13.32
2023-05-17T04:26:08.282Z,12.91
2023-05-17T04:28:37.168Z,12.62
2023-05-17T04:31:06.557Z,12.55
2023-05-17T04:33:33.199Z,13.31
2023-05-17T04:35:59.699Z,14.33
2023-05-17T04:38:26.526Z,14.82
2023-05-17T04:41:01.136Z,14.32
2023-05-17T04:43:27.601Z,13.67
2023-05-17T04:45:57.816Z,13.20
2023-05-17T04:48:25.716Z,12.87
2023-05-17T04:50:52.925Z,12.59
2023-05-17T04:53:19.707Z,12.39
2023-05-17T04:55:48.087Z,12.25
2023-05-17T04:58:15.327Z,12.14
2023-05-17T05:00:44.055Z,12.49
2023-05-17T05:03:11.572Z,13.54
2023-05-17T05:05:38.891Z,14.24
2023-05-17T05:08:05.602Z,13.92
2023-05-17T05:10:32.836Z,13.38
2023-05-17T05:13:00.790Z,12.96
2023-05-17T05:15:30.172Z,12.67
2023-05-17T05:17:58.139Z,12.45
2023-05-17T05:20:27.679Z,12.28
2023-05-17T05:22:57.687Z,12.13
2023-05-17T05:25:24.163Z,12.02
2023-05-17T05:27:50.795Z,11.96
2023-05-17T05:30:23.973Z,12.05
2023-05-17T05:32:52.879Z,13.15
2023-05-17T05:35:22.480Z,14.04
2023-05-17T05:37:49.143Z,13.91
2023-05-17T05:40:16.049Z,13.49
2023-05-17T05:42:42.704Z,13.15
2023-05-17T05:45:09.993Z,12.91
2023-05-17T05:47:36.847Z,12.75
2023-05-17T05:50:05.523Z,12.66
2023-05-17T05:52:32.155Z,12.55
2023-05-17T05:54:59.131Z,12.45
2023-05-17T05:57:25.835Z,12.38
2023-05-17T05:59:52.438Z,12.35
2023-05-17T06:02:20.656Z,12.30
2023-05-17T06:04:47.700Z,12.26
2023-05-17T06:07:14.977Z,12.26
2023-05-17T06:09:41.928Z,12.27
2023-05-17T06:12:08.646Z,12.27
2023-05-17T06:14:36.768Z,12.28
2023-05-17T06:17:03.391Z,12.28
2023-05-17T06:19:30.099Z,12.31
2023-05-17T06:21:56.824Z,12.36
2023-05-17T06:24:23.282Z,12.40
2023-05-17T06:26:49.883Z,12.45
2023-05-17T06:29:16.356Z,12.54
2023-05-17T06:31:42.843Z,12.64
2023-05-17T06:34:09.327Z,12.77
2023-05-17T06:36:36.654Z,12.87
2023-05-17T06:39:05.147Z,12.95
2023-05-17T06:41:31.598Z,13.02
2023-05-17T06:43:58.009Z,13.00
2023-05-17T06:46:34.449Z,13.02
2023-05-17T06:49:01.074Z,13.08
2023-05-17T06:51:27.648Z,13.16
2023-05-17T06:53:54.132Z,13.25
2023-05-17T06:56:21.251Z,13.30
2023-05-17T06:58:47.706Z,13.30
2023-05-17T07:01:14.181Z,13.26
2023-05-17T07:03:40.797Z,13.25
2023-05-17T07:06:07.322Z,13.24
2023-05-17T07:08:33.797Z,13.28
2023-05-17T07:11:00.605Z,13.27
2023-05-17T07:13:27.042Z,13.26
2023-05-17T07:15:53.916Z,13.30
2023-05-17T07:18:20.466Z,13.31
2023-05-17T07:20:47.111Z,13.33
2023-05-17T07:23:13.608Z,13.35
2023-05-17T07:25:42.106Z,13.35
2023-05-17T07:28:08.514Z,13.38
2023-05-17T07:30:34.926Z,13.40
2023-05-17T07:33:01.357Z,13.43
2023-05-17T07:35:27.982Z,13.46
2023-05-17T07:37:54.610Z,13.47
2023-05-17T07:40:21.566Z,13.48
2023-05-17T07:42:48.121Z,13.48
2023-05-17T07:45:14.875Z,13.47
2023-05-17T07:47:41.326Z,13.44
2023-05-17T07:50:12.714Z,13.42
2023-05-17T07:52:39.291Z,13.41
2023-05-17T07:55:06.595Z,13.39
2023-05-17T07:57:33.143Z,13.38
2023-05-17T13:02:36.859Z,15.49
2023-05-17T13:05:24.181Z,15.47
2023-05-17T13:07:53.027Z,15.49
2023-05-17T13:10:29.112Z,15.53
2023-05-17T13:13:01.071Z,15.55
2023-05-17T13:15:32.570Z,15.57
2023-05-17T13:18:14.002Z,15.57
2023-05-17T13:20:43.186Z,15.54
2023-05-17T13:23:11.565Z,15.55
2023-05-17T13:25:43.945Z,15.55
2023-05-17T13:28:12.031Z,15.58
2023-05-17T13:30:40.459Z,15.61
2023-05-17T13:33:08.519Z,15.63
2023-05-17T13:35:37.730Z,15.65
2023-05-17T13:38:05.706Z,15.67
2023-05-17T13:40:33.618Z,15.72
2023-05-17T13:43:01.449Z,15.74
2023-05-17T13:45:29.498Z,15.74
2023-05-17T13:47:57.520Z,15.74
2023-05-17T13:50:26.171Z,15.72
2023-05-17T13:52:54.058Z,15.73
2023-05-17T13:55:22.125Z,15.76
2023-05-17T13:57:50.471Z,15.79
2023-05-17T14:00:18.866Z,15.81
2023-05-17T14:02:47.007Z,15.81
2023-05-17T14:05:15.618Z,15.78
2023-05-17T14:07:44.024Z,15.76
2023-05-17T14:10:13.558Z,15.76
2023-05-17T14:12:43.356Z,15.77
2023-05-17T14:15:11.998Z,15.76
2023-05-17T14:17:40.542Z,15.75
2023-05-17T14:20:12.942Z,15.74
2023-05-17T14:22:41.725Z,15.75
2023-05-17T14:25:13.788Z,15.78
2023-05-17T14:27:42.810Z,15.78
2023-05-17T14:30:13.508Z,15.80
2023-05-17T14:32:41.806Z,15.79
2023-05-17T14:35:10.283Z,15.81
2023-05-17T14:37:38.519Z,15.83
2023-05-17T14:40:07.219Z,15.85
2023-05-17T14:42:35.213Z,15.88
2023-05-17T14:45:03.118Z,15.89
2023-05-17T14:47:30.915Z,15.90
2023-05-17T14:49:59.524Z,15.90
2023-05-17T14:52:27.326Z,15.87
2023-05-17T14:54:55.117Z,15.81
2023-05-17T14:57:23.528Z,15.76
2023-05-17T14:59:52.224Z,15.75
2023-05-17T15:02:20.260Z,15.76
2023-05-17T15:04:51.684Z,15.75
2023-05-17T15:07:33.852Z,15.76
2023-05-17T15:10:01.766Z,15.76
2023-05-17T15:12:29.701Z,15.81
2023-05-17T15:14:57.945Z,15.86
2023-05-17T15:17:25.729Z,15.90
2023-05-17T15:19:53.790Z,15.89
2023-05-17T15:22:21.956Z,15.86
2023-05-17T15:24:50.092Z,15.84
2023-05-17T15:27:17.876Z,15.85
2023-05-17T15:29:45.678Z,15.89
2023-05-17T15:32:13.464Z,15.91
2023-05-17T15:34:41.480Z,15.90
2023-05-17T15:37:09.302Z,15.89
2023-05-17T15:39:37.098Z,15.90
2023-05-17T15:42:05.917Z,15.89
2023-05-17T15:44:34.001Z,15.88
2023-05-17T15:47:03.190Z,15.87
2023-05-17T15:49:31.607Z,15.86
2023-05-17T15:51:59.502Z,15.85
2023-05-17T15:54:27.533Z,15.81
2023-05-17T15:56:55.414Z,15.76
2023-05-17T15:59:23.233Z,15.73
2023-05-17T16:01:51.112Z,15.73
2023-05-17T16:04:18.961Z,15.73
2023-05-17T16:06:46.945Z,15.71
2023-05-17T16:09:14.807Z,15.68
2023-05-17T16:11:42.710Z,15.64
2023-05-17T16:14:10.757Z,15.63
2023-05-17T16:16:38.567Z,15.64
2023-05-17T16:19:06.515Z,15.64
2023-05-17T16:21:35.612Z,15.64
2023-05-17T16:24:04.258Z,15.63
2023-05-17T16:26:34.589Z,15.63
2023-05-17T16:29:03.002Z,15.58
2023-05-17T16:31:30.847Z,15.54
2023-05-17T16:34:01.266Z,15.52
2023-05-17T16:36:29.087Z,15.50
2023-05-17T16:38:58.105Z,15.48
2023-05-17T16:41:26.860Z,15.46
2023-05-17T16:43:55.027Z,15.42
2023-05-17T16:46:24.818Z,15.38
2023-05-17T16:48:54.001Z,15.34
2023-05-17T16:51:21.831Z,15.32
2023-05-17T16:53:50.030Z,15.29
2023-05-17T16:56:17.984Z,15.24
2023-05-17T16:58:46.693Z,15.21
2023-05-17T17:01:14.501Z,15.19
2023-05-17T17:03:42.550Z,15.19
2023-05-17T17:06:10.553Z,15.17
2023-05-17T17:08:38.443Z,15.15
2023-05-17T17:11:06.468Z,15.12
2023-05-17T17:13:35.054Z,15.09
2023-05-17T17:16:03.718Z,15.06
2023-05-17T17:18:34.656Z,15.01
2023-05-17T17:21:04.772Z,14.98
2023-05-17T17:23:34.278Z,14.94
2023-05-17T17:26:02.045Z,14.91
2023-05-17T17:28:29.838Z,14.88
2023-05-17T17:30:58.564Z,14.85
2023-05-17T17:33:26.820Z,14.81
2023-05-17T17:35:54.814Z,14.79
2023-05-17T17:38:22.611Z,14.78
2023-05-17T17:40:50.661Z,14.75
2023-05-17T17:43:18.522Z,14.73
2023-05-17T17:45:47.332Z,14.70
2023-05-17T17:48:15.250Z,14.67
2023-05-17T17:50:43.250Z,14.64
2023-05-17T17:53:13.282Z,14.59
2023-05-17T17:55:41.272Z,14.54
2023-05-17T17:58:09.160Z,14.49
2023-05-17T18:00:37.042Z,14.42
2023-05-17T18:03:05.885Z,14.37
2023-05-17T18:05:34.314Z,14.31
2023-05-17T18:08:02.763Z,14.26
2023-05-17T18:10:31.750Z,14.21
2023-05-17T18:13:01.215Z,14.17
2023-05-17T18:15:29.086Z,14.13
2023-05-17T18:17:57.486Z,14.07
2023-05-17T18:20:26.737Z,14.02
2023-05-17T18:22:56.214Z,13.97
2023-05-17T18:25:24.207Z,13.92
2023-05-17T18:27:52.231Z,13.87
2023-05-17T18:30:20.187Z,13.82
2023-05-17T18:32:48.067Z,13.76
2023-05-17T18:35:16.100Z,13.72
2023-05-17T18:37:44.069Z,13.65
2023-05-17T18:40:13.655Z,13.58
2023-05-17T18:42:41.491Z,13.53
2023-05-17T18:45:09.770Z,13.48
2023-05-17T18:47:37.719Z,13.43
2023-05-17T18:50:06.337Z,13.38
2023-05-17T18:52:34.180Z,13.34
2023-05-17T18:55:03.488Z,13.30
2023-05-17T18:57:32.756Z,13.25
2023-05-17T19:00:00.763Z,13.19
2023-05-17T19:02:28.869Z,13.14
2023-05-17T19:04:58.195Z,13.09
2023-05-17T19:07:25.967Z,13.03
2023-05-17T19:09:53.936Z,12.98
2023-05-17T19:12:21.733Z,12.95
2023-05-17T19:14:49.534Z,12.93
2023-05-17T19:17:17.512Z,12.90
2023-05-17T19:19:45.798Z,13.05
2023-05-17T19:22:16.573Z,14.10
2023-05-17T19:24:44.378Z,15.18
2023-05-17T19:27:16.898Z,15.79
2023-05-17T19:29:45.153Z,15.41
2023-05-17T19:32:13.151Z,14.87
2023-05-17T19:34:41.668Z,14.47
2023-05-17T19:37:09.509Z,14.17
2023-05-17T19:39:37.935Z,13.93
2023-05-17T19:42:06.386Z,13.75
2023-05-17T19:44:41.360Z,13.60
2023-05-17T19:47:15.620Z,13.44
2023-05-17T19:49:43.491Z,13.31
2023-05-17T19:52:11.514Z,13.20
2023-05-17T19:54:39.386Z,13.07
2023-05-17T19:57:07.999Z,12.97
2023-05-17T19:59:35.832Z,12.88
2023-05-17T20:02:03.873Z,12.79
2023-05-17T20:04:31.761Z,12.72
2023-05-17T20:07:00.025Z,12.88
2023-05-17T20:09:32.456Z,14.07
2023-05-17T20:12:04.453Z,15.35
2023-05-17T20:14:32.509Z,15.84
2023-05-17T20:17:00.926Z,15.36
2023-05-17T20:19:31.199Z,14.80
2023-05-17T20:21:59.427Z,14.40
2023-05-17T20:24:32.083Z,14.10
2023-05-17T20:27:00.016Z,13.86
2023-05-17T20:29:28.412Z,13.70
2023-05-17T20:31:56.340Z,13.55
2023-05-17T20:34:29.248Z,13.41
2023-05-17T20:36:58.556Z,13.27
2023-05-17T20:39:28.383Z,13.15
2023-05-17T20:41:58.385Z,13.04
2023-05-17T20:44:26.229Z,12.95
2023-05-17T20:46:55.435Z,12.87
2023-05-17T20:49:23.303Z,13.01
2023-05-17T20:51:51.167Z,14.13
2023-05-17T20:54:18.974Z,15.28
2023-05-17T20:56:48.635Z,15.79
2023-05-17T20:59:23.442Z,15.30
2023-05-17T21:01:52.021Z,14.71
2023-05-17T21:04:21.798Z,14.31
2023-05-17T21:06:50.820Z,14.02
2023-05-17T21:09:18.999Z,13.78
2023-05-17T21:11:46.845Z,13.57
2023-05-17T21:14:14.737Z,13.40
2023-05-17T21:16:42.704Z,13.26
2023-05-17T21:19:10.694Z,13.14
2023-05-17T21:21:38.876Z,13.01
2023-05-17T21:24:07.442Z,12.89
2023-05-17T21:26:36.389Z,12.77
2023-05-17T21:29:06.343Z,12.67
2023-05-17T21:31:34.472Z,12.59
2023-05-17T21:34:02.434Z,12.51
2023-05-17T21:36:31.374Z,12.43
2023-05-17T21:38:59.355Z,12.36
2023-05-17T21:41:27.173Z,12.29
2023-05-17T21:43:55.223Z,12.23
2023-05-17T21:46:23.085Z,12.18
2023-05-17T21:48:52.329Z,12.14
2023-05-17T21:51:21.723Z,12.09
2023-05-17T21:53:50.681Z,12.03
2023-05-17T21:56:18.560Z,12.00
2023-05-17T21:58:46.631Z,11.97
2023-05-17T22:01:14.982Z,11.96
2023-05-17T22:03:42.933Z,11.93
2023-05-17T22:06:13.170Z,11.92
2023-05-17T22:08:42.294Z,11.91
2023-05-17T22:11:11.124Z,11.91
2023-05-17T22:13:39.181Z,11.89
2023-05-17T22:16:07.414Z,11.87
2023-05-17T22:18:35.384Z,11.85
2023-05-17T22:21:03.247Z,11.85
2023-05-17T22:23:31.056Z,11.85
2023-05-17T22:26:00.604Z,11.85
2023-05-17T22:28:28.797Z,11.85
2023-05-17T22:30:56.952Z,11.85
2023-05-17T22:33:24.993Z,11.85
2023-05-17T22:35:54.317Z,11.85
2023-05-17T22:38:25.059Z,11.85
2023-05-17T22:40:52.937Z,11.84
2023-05-17T22:43:26.068Z,11.84
2023-05-17T22:45:54.017Z,11.83
2023-05-17T22:48:21.865Z,11.80
2023-05-17T22:50:54.714Z,11.78
2023-05-17T22:53:22.496Z,11.74
2023-05-17T22:55:50.302Z,11.71
2023-05-17T22:58:18.543Z,11.67
2023-05-17T23:00:47.187Z,11.63
2023-05-17T23:03:15.234Z,11.60
2023-05-17T23:05:45.506Z,11.57
2023-05-17T23:08:15.432Z,11.55
2023-05-17T23:10:46.773Z,11.54
2023-05-17T23:13:15.225Z,11.51
2023-05-17T23:15:46.925Z,11.51
2023-05-17T23:18:16.058Z,11.49
2023-05-17T23:20:45.522Z,11.48
2023-05-17T23:23:15.319Z,11.48
2023-05-17T23:25:44.860Z,11.49
2023-05-17T23:28:14.491Z,11.48
2023-05-17T23:30:42.263Z,11.45
2023-05-17T23:33:10.070Z,11.41
2023-05-17T23:35:37.926Z,11.39
2023-05-17T23:38:07.323Z,11.36
2023-05-17T23:40:35.158Z,11.33
2023-05-17T23:43:04.286Z,11.29
2023-05-17T23:45:32.282Z,11.25
2023-05-17T23:48:00.714Z,11.23
2023-05-17T23:50:28.852Z,11.17
2023-05-17T23:52:56.656Z,11.12
2023-05-17T23:55:24.432Z,11.04
2023-05-17T23:57:54.233Z,10.99
